Airfield :
LOGIN :

Register | Disclaimer

   EN    FR    IT 

 










Legend :    VFR   Marginal VFR   IFR   Intensive IFR   Very Intensive IFR
Visi :
Ceiling :
>= 8 km
>= 3000ft
5 to 8 km
1000 to 3000 ft
1500m to 5 km
500 to 1000 ft
800 to 1500m
200 to 500 ft
< 800m
< 200 ft
Symbols :   Thunderstorms  Fog  Heavy snow  Heavy precipitations  Wind > 20 kt
SIGMETs :     Misc.  Thunderstorms  Icing  Turbulence  Mountain Waves  Volcanic Ashes







- Airport Elevation : 302 ft
- Download approach charts


LFPM - Melun Villaroche

CURRENT METAR :
  • 222330Z AUTO 02005KT 360V060 CAVOK 20/15 Q1017

EXPIRED METARs :
  • 222300Z AUTO 34007KT CAVOK 21/15 Q1016
  • 222230Z AUTO 35007KT CAVOK 21/16 Q1016
  • 222200Z AUTO 35006KT CAVOK 21/16 Q1016
  • 222130Z AUTO 01007KT CAVOK 22/16 Q1015
  • 222100Z AUTO 36008KT CAVOK 23/17 Q1015

Expired Forecast.
ATIS : +33 1 64 14 28 44
No reported NOTAMs for that airfield.



MET'MAP, your aeronautical weather chart ! - Copyright ORBIFLY December 2007 - Disclaimer

ORBIFLY MET'MAP TEAM :

Programming & Development : Alexandra Zaïnal
Concept & Development : Baudouin d'Aumeries
Co-Development & Prog : Marc-Olivier Méhu
Technical & hardware support : Manuel Goepfert

Contact : metmap@orbifly.com




SOURCES & CREDITS :

   NOAA